sensor_id;sensor_type;location;lat;lon;timestamp;temperature;humidity
18281;DHT22;9266;51.132;17.062;2023-06-10T00:00:12;15.50;99.90
18281;DHT22;9266;51.132;17.062;2023-06-10T00:02:42;15.50;99.90
18281;DHT22;9266;51.132;17.062;2023-06-10T00:05:09;15.40;99.90
18281;DHT22;9266;51.132;17.062;2023-06-10T00:07:36;15.50;99.90
18281;DHT22;9266;51.132;17.062;2023-06-10T00:10:05;15.50;99.90
18281;DHT22;9266;51.132;17.062;2023-06-10T00:12:32;15.60;99.90
18281;DHT22;9266;51.132;17.062;2023-06-10T00:15:06;15.60;99.90
18281;DHT22;9266;51.132;17.062;2023-06-10T00:17:34;15.60;99.90
18281;DHT22;9266;51.132;17.062;2023-06-10T00:20:06;15.60;99.90
18281;DHT22;9266;51.132;17.062;2023-06-10T00:22:34;15.60;99.90
18281;DHT22;9266;51.132;17.062;2023-06-10T00:25:01;15.50;99.90
18281;DHT22;9266;51.132;17.062;2023-06-10T00:27:29;15.50;99.90
18281;DHT22;9266;51.132;17.062;2023-06-10T00:30:01;15.50;99.90
18281;DHT22;9266;51.132;17.062;2023-06-10T00:32:29;15.50;99.90
18281;DHT22;9266;51.132;17.062;2023-06-10T00:34:56;15.60;99.90
18281;DHT22;9266;51.132;17.062;2023-06-10T00:37:23;15.60;99.90
18281;DHT22;9266;51.132;17.062;2023-06-10T00:39:50;15.60;99.90
18281;DHT22;9266;51.132;17.062;2023-06-10T00:42:17;15.70;99.90
18281;DHT22;9266;51.132;17.062;2023-06-10T00:44:44;15.70;99.90
18281;DHT22;9266;51.132;17.062;2023-06-10T00:47:11;15.70;99.90
18281;DHT22;9266;51.132;17.062;2023-06-10T00:49:40;15.70;99.90
18281;DHT22;9266;51.132;17.062;2023-06-10T00:52:08;15.70;99.90
18281;DHT22;9266;51.132;17.062;2023-06-10T00:54:38;15.70;99.90
18281;DHT22;9266;51.132;17.062;2023-06-10T00:57:06;15.70;99.90
18281;DHT22;9266;51.132;17.062;2023-06-10T00:59:33;15.70;99.90
18281;DHT22;9266;51.132;17.062;2023-06-10T01:02:01;15.80;99.90
18281;DHT22;9266;51.132;17.062;2023-06-10T01:04:29;15.90;99.90
18281;DHT22;9266;51.132;17.062;2023-06-10T01:07:05;15.90;99.90
18281;DHT22;9266;51.132;17.062;2023-06-10T01:09:42;15.90;99.90
18281;DHT22;9266;51.132;17.062;2023-06-10T01:12:16;15.90;99.90
18281;DHT22;9266;51.132;17.062;2023-06-10T01:14:46;15.90;99.90
18281;DHT22;9266;51.132;17.062;2023-06-10T01:17:14;15.90;99.90
18281;DHT22;9266;51.132;17.062;2023-06-10T01:19:43;15.90;99.90
18281;DHT22;9266;51.132;17.062;2023-06-10T01:22:12;15.90;99.90
18281;DHT22;9266;51.132;17.062;2023-06-10T01:24:41;15.90;99.90
18281;DHT22;9266;51.132;17.062;2023-06-10T01:27:12;15.90;99.90
18281;DHT22;9266;51.132;17.062;2023-06-10T01:29:45;15.80;99.90
18281;DHT22;9266;51.132;17.062;2023-06-10T01:32:18;15.70;99.90
18281;DHT22;9266;51.132;17.062;2023-06-10T01:34:48;15.70;99.90
18281;DHT22;9266;51.132;17.062;2023-06-10T01:37:20;15.60;99.90
18281;DHT22;9266;51.132;17.062;2023-06-10T01:39:49;15.60;99.90
18281;DHT22;9266;51.132;17.062;2023-06-10T01:42:17;15.70;99.90
18281;DHT22;9266;51.132;17.062;2023-06-10T01:44:45;15.70;99.90
18281;DHT22;9266;51.132;17.062;2023-06-10T01:47:12;15.70;99.90
18281;DHT22;9266;51.132;17.062;2023-06-10T01:49:39;15.80;99.90
18281;DHT22;9266;51.132;17.062;2023-06-10T01:52:06;15.80;99.90
18281;DHT22;9266;51.132;17.062;2023-06-10T01:54:35;15.90;99.90
18281;DHT22;9266;51.132;17.062;2023-06-10T01:57:04;15.80;99.90
18281;DHT22;9266;51.132;17.062;2023-06-10T01:59:31;15.80;99.90
18281;DHT22;9266;51.132;17.062;2023-06-10T02:01:59;15.70;99.90
18281;DHT22;9266;51.132;17.062;2023-06-10T02:04:25;15.70;99.90
18281;DHT22;9266;51.132;17.062;2023-06-10T02:06:53;15.70;99.90
18281;DHT22;9266;51.132;17.062;2023-06-10T02:09:21;15.70;99.90
18281;DHT22;9266;51.132;17.062;2023-06-10T02:11:49;15.70;99.90
18281;DHT22;9266;51.132;17.062;2023-06-10T02:14:16;15.70;99.90
18281;DHT22;9266;51.132;17.062;2023-06-10T02:16:44;15.70;99.90
18281;DHT22;9266;51.132;17.062;2023-06-10T02:19:12;15.70;99.90
18281;DHT22;9266;51.132;17.062;2023-06-10T02:21:42;15.70;99.90
18281;DHT22;9266;51.132;17.062;2023-06-10T02:24:09;15.70;99.90
18281;DHT22;9266;51.132;17.062;2023-06-10T02:26:36;15.70;99.90
18281;DHT22;9266;51.132;17.062;2023-06-10T02:29:05;15.80;99.90
18281;DHT22;9266;51.132;17.062;2023-06-10T02:31:32;15.80;99.90
18281;DHT22;9266;51.132;17.062;2023-06-10T02:34:01;15.70;99.90
18281;DHT22;9266;51.132;17.062;2023-06-10T02:36:28;15.80;99.90
18281;DHT22;9266;51.132;17.062;2023-06-10T02:38:55;15.80;99.90
18281;DHT22;9266;51.132;17.062;2023-06-10T02:41:22;15.80;99.90
18281;DHT22;9266;51.132;17.062;2023-06-10T02:43:50;15.80;99.90
18281;DHT22;9266;51.132;17.062;2023-06-10T02:46:19;15.80;99.90
18281;DHT22;9266;51.132;17.062;2023-06-10T02:48:46;15.80;99.90
18281;DHT22;9266;51.132;17.062;2023-06-10T02:51:15;15.80;99.90
18281;DHT22;9266;51.132;17.062;2023-06-10T02:53:42;15.70;99.90
18281;DHT22;9266;51.132;17.062;2023-06-10T02:56:09;15.70;99.90
18281;DHT22;9266;51.132;17.062;2023-06-10T02:58:37;15.80;99.90
18281;DHT22;9266;51.132;17.062;2023-06-10T03:01:04;15.80;99.90
18281;DHT22;9266;51.132;17.062;2023-06-10T03:03:32;15.80;99.90
18281;DHT22;9266;51.132;17.062;2023-06-10T03:06:01;15.70;99.90
18281;DHT22;9266;51.132;17.062;2023-06-10T03:08:28;15.80;99.90
18281;DHT22;9266;51.132;17.062;2023-06-10T03:10:56;15.80;99.90
18281;DHT22;9266;51.132;17.062;2023-06-10T03:13:23;15.80;99.90
18281;DHT22;9266;51.132;17.062;2023-06-10T03:15:50;15.20;99.90
18281;DHT22;9266;51.132;17.062;2023-06-10T03:18:18;15.80;99.90
18281;DHT22;9266;51.132;17.062;2023-06-10T03:20:47;15.80;99.90
18281;DHT22;9266;51.132;17.062;2023-06-10T03:23:15;15.90;99.90
18281;DHT22;9266;51.132;17.062;2023-06-10T03:25:42;15.90;99.90
18281;DHT22;9266;51.132;17.062;2023-06-10T03:28:09;15.90;99.90
18281;DHT22;9266;51.132;17.062;2023-06-10T03:30:36;15.90;99.90
18281;DHT22;9266;51.132;17.062;2023-06-10T03:33:03;16.00;99.90
18281;DHT22;9266;51.132;17.062;2023-06-10T03:35:30;16.00;99.90
18281;DHT22;9266;51.132;17.062;2023-06-10T03:37:59;16.00;99.90
18281;DHT22;9266;51.132;17.062;2023-06-10T03:40:26;16.00;99.90
18281;DHT22;9266;51.132;17.062;2023-06-10T03:42:56;16.10;99.90
18281;DHT22;9266;51.132;17.062;2023-06-10T03:45:23;16.00;99.90
18281;DHT22;9266;51.132;17.062;2023-06-10T03:47:50;16.10;99.90
18281;DHT22;9266;51.132;17.062;2023-06-10T03:50:17;16.00;99.90
18281;DHT22;9266;51.132;17.062;2023-06-10T03:52:44;16.10;99.90
18281;DHT22;9266;51.132;17.062;2023-06-10T03:55:13;16.10;99.90
18281;DHT22;9266;51.132;17.062;2023-06-10T03:57:42;16.20;99.90
18281;DHT22;9266;51.132;17.062;2023-06-10T04:00:10;16.20;99.90
18281;DHT22;9266;51.132;17.062;2023-06-10T04:02:38;16.30;99.90
18281;DHT22;9266;51.132;17.062;2023-06-10T04:05:11;16.30;99.90
18281;DHT22;9266;51.132;17.062;2023-06-10T04:07:38;16.40;99.90
18281;DHT22;9266;51.132;17.062;2023-06-10T04:10:07;16.40;99.90
18281;DHT22;9266;51.132;17.062;2023-06-10T04:12:36;16.50;99.90
18281;DHT22;9266;51.132;17.062;2023-06-10T04:15:04;16.50;99.90
18281;DHT22;9266;51.132;17.062;2023-06-10T04:17:31;16.50;99.90
18281;DHT22;9266;51.132;17.062;2023-06-10T04:19:59;16.60;99.90
18281;DHT22;9266;51.132;17.062;2023-06-10T04:22:26;16.50;99.90
18281;DHT22;9266;51.132;17.062;2023-06-10T04:24:53;16.60;99.90
18281;DHT22;9266;51.132;17.062;2023-06-10T04:27:20;16.60;99.90
18281;DHT22;9266;51.132;17.062;2023-06-10T04:29:51;16.60;99.90
18281;DHT22;9266;51.132;17.062;2023-06-10T04:32:19;16.80;99.90
18281;DHT22;9266;51.132;17.062;2023-06-10T04:34:46;16.80;99.90
18281;DHT22;9266;51.132;17.062;2023-06-10T04:37:13;16.80;99.90
18281;DHT22;9266;51.132;17.062;2023-06-10T04:39:40;16.80;99.90
18281;DHT22;9266;51.132;17.062;2023-06-10T04:42:08;16.80;99.90
18281;DHT22;9266;51.132;17.062;2023-06-10T04:44:38;16.80;99.90
18281;DHT22;9266;51.132;17.062;2023-06-10T04:47:07;16.90;99.90
18281;DHT22;9266;51.132;17.062;2023-06-10T04:49:34;16.90;99.90
18281;DHT22;9266;51.132;17.062;2023-06-10T04:52:02;16.90;99.90
18281;DHT22;9266;51.132;17.062;2023-06-10T04:54:30;16.90;99.90
18281;DHT22;9266;51.132;17.062;2023-06-10T04:56:59;16.90;99.90
18281;DHT22;9266;51.132;17.062;2023-06-10T04:59:26;16.90;99.90
18281;DHT22;9266;51.132;17.062;2023-06-10T05:01:53;16.90;99.90
18281;DHT22;9266;51.132;17.062;2023-06-10T05:04:22;16.90;99.90
18281;DHT22;9266;51.132;17.062;2023-06-10T05:06:49;16.90;99.90
18281;DHT22;9266;51.132;17.062;2023-06-10T05:09:18;16.90;99.90
18281;DHT22;9266;51.132;17.062;2023-06-10T05:11:45;17.00;99.90
18281;DHT22;9266;51.132;17.062;2023-06-10T05:14:12;17.10;99.90
18281;DHT22;9266;51.132;17.062;2023-06-10T05:16:41;17.10;99.90
18281;DHT22;9266;51.132;17.062;2023-06-10T05:19:08;17.20;99.90
18281;DHT22;9266;51.132;17.062;2023-06-10T05:21:37;17.40;99.90
18281;DHT22;9266;51.132;17.062;2023-06-10T05:24:04;17.50;99.90
18281;DHT22;9266;51.132;17.062;2023-06-10T05:26:32;17.70;99.90
18281;DHT22;9266;51.132;17.062;2023-06-10T05:29:03;17.80;99.90
18281;DHT22;9266;51.132;17.062;2023-06-10T05:31:30;17.80;99.90
18281;DHT22;9266;51.132;17.062;2023-06-10T05:34:04;17.80;99.90
18281;DHT22;9266;51.132;17.062;2023-06-10T05:36:31;17.90;99.90
18281;DHT22;9266;51.132;17.062;2023-06-10T05:38:59;18.10;99.90
18281;DHT22;9266;51.132;17.062;2023-06-10T05:41:26;18.40;99.90
18281;DHT22;9266;51.132;17.062;2023-06-10T05:43:54;18.50;99.90
18281;DHT22;9266;51.132;17.062;2023-06-10T05:46:21;18.70;99.90
18281;DHT22;9266;51.132;17.062;2023-06-10T05:48:48;19.10;99.90
18281;DHT22;9266;51.132;17.062;2023-06-10T05:51:15;19.60;99.90
18281;DHT22;9266;51.132;17.062;2023-06-10T05:53:44;19.80;99.90
18281;DHT22;9266;51.132;17.062;2023-06-10T05:56:13;20.20;99.90
18281;DHT22;9266;51.132;17.062;2023-06-10T05:58:48;20.20;99.90
18281;DHT22;9266;51.132;17.062;2023-06-10T06:01:15;21.40;1.00
18281;DHT22;9266;51.132;17.062;2023-06-10T06:03:42;21.10;99.90
18281;DHT22;9266;51.132;17.062;2023-06-10T06:06:13;20.80;99.90
18281;DHT22;9266;51.132;17.062;2023-06-10T06:08:40;21.10;1.00
18281;DHT22;9266;51.132;17.062;2023-06-10T06:11:07;20.80;1.00
18281;DHT22;9266;51.132;17.062;2023-06-10T06:13:35;20.80;1.00
18281;DHT22;9266;51.132;17.062;2023-06-10T06:16:03;20.80;30.70
18281;DHT22;9266;51.132;17.062;2023-06-10T06:18:30;20.70;99.90
18281;DHT22;9266;51.132;17.062;2023-06-10T06:20:57;20.50;1.00
18281;DHT22;9266;51.132;17.062;2023-06-10T06:23:24;20.50;99.90
18281;DHT22;9266;51.132;17.062;2023-06-10T06:25:52;20.60;99.90
18281;DHT22;9266;51.132;17.062;2023-06-10T06:28:21;20.80;99.90
18281;DHT22;9266;51.132;17.062;2023-06-10T06:30:50;20.70;1.00
18281;DHT22;9266;51.132;17.062;2023-06-10T06:33:17;20.70;1.00
18281;DHT22;9266;51.132;17.062;2023-06-10T06:35:44;20.00;99.90
18281;DHT22;9266;51.132;17.062;2023-06-10T06:38:14;20.60;99.90
18281;DHT22;9266;51.132;17.062;2023-06-10T06:40:42;20.40;1.00
18281;DHT22;9266;51.132;17.062;2023-06-10T06:43:09;20.50;1.00
18281;DHT22;9266;51.132;17.062;2023-06-10T06:45:36;20.50;1.00
18281;DHT22;9266;51.132;17.062;2023-06-10T06:48:05;20.50;99.90
18281;DHT22;9266;51.132;17.062;2023-06-10T06:50:32;20.60;1.00
18281;DHT22;9266;51.132;17.062;2023-06-10T06:52:59;20.90;99.90
18281;DHT22;9266;51.132;17.062;2023-06-10T06:55:29;20.90;1.00
18281;DHT22;9266;51.132;17.062;2023-06-10T06:57:56;21.20;1.00
18281;DHT22;9266;51.132;17.062;2023-06-10T07:00:24;21.30;99.90
18281;DHT22;9266;51.132;17.062;2023-06-10T07:02:51;21.50;99.90
18281;DHT22;9266;51.132;17.062;2023-06-10T07:05:19;21.40;1.00
18281;DHT22;9266;51.132;17.062;2023-06-10T07:07:47;21.20;99.90
18281;DHT22;9266;51.132;17.062;2023-06-10T07:10:14;21.20;1.00
18281;DHT22;9266;51.132;17.062;2023-06-10T07:12:41;21.10;76.30
18281;DHT22;9266;51.132;17.062;2023-06-10T07:15:09;21.20;62.90
18281;DHT22;9266;51.132;17.062;2023-06-10T07:17:36;21.40;1.00
18281;DHT22;9266;51.132;17.062;2023-06-10T07:20:03;21.40;1.00
18281;DHT22;9266;51.132;17.062;2023-06-10T07:22:32;21.60;99.90
18281;DHT22;9266;51.132;17.062;2023-06-10T07:24:59;21.90;99.90
18281;DHT22;9266;51.132;17.062;2023-06-10T07:27:26;22.00;3.80
18281;DHT22;9266;51.132;17.062;2023-06-10T07:29:56;22.20;1.00
18281;DHT22;9266;51.132;17.062;2023-06-10T07:32:23;22.50;1.00
18281;DHT22;9266;51.132;17.062;2023-06-10T07:34:50;22.40;99.90
18281;DHT22;9266;51.132;17.062;2023-06-10T07:37:17;22.30;1.00
18281;DHT22;9266;51.132;17.062;2023-06-10T07:39:47;22.20;1.00
18281;DHT22;9266;51.132;17.062;2023-06-10T07:42:15;22.30;1.00
18281;DHT22;9266;51.132;17.062;2023-06-10T07:44:43;22.40;1.00
18281;DHT22;9266;51.132;17.062;2023-06-10T07:47:12;22.80;99.90
18281;DHT22;9266;51.132;17.062;2023-06-10T07:49:39;23.00;99.90
18281;DHT22;9266;51.132;17.062;2023-06-10T07:52:08;23.20;99.90
18281;DHT22;9266;51.132;17.062;2023-06-10T07:54:35;23.10;99.90
18281;DHT22;9266;51.132;17.062;2023-06-10T07:57:04;23.70;1.00
18281;DHT22;9266;51.132;17.062;2023-06-10T07:59:32;24.00;1.00
18281;DHT22;9266;51.132;17.062;2023-06-10T08:01:59;24.00;1.00
18281;DHT22;9266;51.132;17.062;2023-06-10T08:04:26;24.20;99.90
18281;DHT22;9266;51.132;17.062;2023-06-10T08:06:53;25.00;1.00
18281;DHT22;9266;51.132;17.062;2023-06-10T08:09:20;25.60;1.00
18281;DHT22;9266;51.132;17.062;2023-06-10T08:11:51;25.80;99.90
18281;DHT22;9266;51.132;17.062;2023-06-10T08:14:20;25.20;99.90
18281;DHT22;9266;51.132;17.062;2023-06-10T08:16:47;24.60;1.00
18281;DHT22;9266;51.132;17.062;2023-06-10T08:19:14;24.30;1.00
18281;DHT22;9266;51.132;17.062;2023-06-10T08:21:42;24.50;99.90
18281;DHT22;9266;51.132;17.062;2023-06-10T08:24:09;24.80;99.90
18281;DHT22;9266;51.132;17.062;2023-06-10T08:26:38;25.00;1.00
18281;DHT22;9266;51.132;17.062;2023-06-10T08:29:08;26.30;99.90
18281;DHT22;9266;51.132;17.062;2023-06-10T08:31:41;26.70;99.90
18281;DHT22;9266;51.132;17.062;2023-06-10T08:34:22;26.10;99.90
18281;DHT22;9266;51.132;17.062;2023-06-10T08:36:49;26.80;1.00
18281;DHT22;9266;51.132;17.062;2023-06-10T08:39:25;27.70;1.00
18281;DHT22;9266;51.132;17.062;2023-06-10T08:42:00;26.30;1.00
18281;DHT22;9266;51.132;17.062;2023-06-10T08:44:36;25.90;42.30
18281;DHT22;9266;51.132;17.062;2023-06-10T08:47:15;25.90;99.90
18281;DHT22;9266;51.132;17.062;2023-06-10T08:49:46;26.70;1.00
18281;DHT22;9266;51.132;17.062;2023-06-10T08:52:15;26.80;1.00
18281;DHT22;9266;51.132;17.062;2023-06-10T08:54:45;27.00;99.90
18281;DHT22;9266;51.132;17.062;2023-06-10T08:57:22;27.90;1.00
18281;DHT22;9266;51.132;17.062;2023-06-10T08:59:57;28.10;99.90
18281;DHT22;9266;51.132;17.062;2023-06-10T09:02:27;27.40;99.90
18281;DHT22;9266;51.132;17.062;2023-06-10T09:05:06;26.20;1.00
18281;DHT22;9266;51.132;17.062;2023-06-10T09:07:34;25.60;1.00
18281;DHT22;9266;51.132;17.062;2023-06-10T09:10:03;27.50;99.90
18281;DHT22;9266;51.132;17.062;2023-06-10T09:12:36;28.00;1.00
18281;DHT22;9266;51.132;17.062;2023-06-10T09:15:07;28.30;1.00
18281;DHT22;9266;51.132;17.062;2023-06-10T09:17:39;27.80;99.90
18281;DHT22;9266;51.132;17.062;2023-06-10T09:20:11;28.80;1.00
18281;DHT22;9266;51.132;17.062;2023-06-10T09:22:48;28.20;99.90
18281;DHT22;9266;51.132;17.062;2023-06-10T09:25:29;27.10;1.00
18281;DHT22;9266;51.132;17.062;2023-06-10T09:28:04;25.90;1.00
18281;DHT22;9266;51.132;17.062;2023-06-10T09:30:35;24.10;1.00
18281;DHT22;9266;51.132;17.062;2023-06-10T09:33:11;24.60;1.00
18281;DHT22;9266;51.132;17.062;2023-06-10T09:35:45;24.40;1.00
18281;DHT22;9266;51.132;17.062;2023-06-10T09:38:19;25.70;1.00
18281;DHT22;9266;51.132;17.062;2023-06-10T09:40:53;25.40;99.90
18281;DHT22;9266;51.132;17.062;2023-06-10T09:43:21;25.20;1.00
18281;DHT22;9266;51.132;17.062;2023-06-10T09:45:49;24.70;1.00
18281;DHT22;9266;51.132;17.062;2023-06-10T09:48:20;24.90;99.90
18281;DHT22;9266;51.132;17.062;2023-06-10T09:50:48;24.90;1.00
18281;DHT22;9266;51.132;17.062;2023-06-10T09:53:17;25.20;1.00
18281;DHT22;9266;51.132;17.062;2023-06-10T09:55:45;25.10;1.00
18281;DHT22;9266;51.132;17.062;2023-06-10T09:58:12;25.00;99.90
18281;DHT22;9266;51.132;17.062;2023-06-10T10:00:40;24.90;1.00
18281;DHT22;9266;51.132;17.062;2023-06-10T10:03:07;24.70;99.90
18281;DHT22;9266;51.132;17.062;2023-06-10T10:05:37;24.60;99.90
18281;DHT22;9266;51.132;17.062;2023-06-10T10:08:04;24.50;1.00
18281;DHT22;9266;51.132;17.062;2023-06-10T10:10:32;24.70;1.00
18281;DHT22;9266;51.132;17.062;2023-06-10T10:13:03;24.90;99.90
18281;DHT22;9266;51.132;17.062;2023-06-10T10:15:32;25.10;1.00
18281;DHT22;9266;51.132;17.062;2023-06-10T10:18:07;25.40;99.90
18281;DHT22;9266;51.132;17.062;2023-06-10T10:20:41;25.00;99.90
18281;DHT22;9266;51.132;17.062;2023-06-10T10:23:14;24.80;1.00
18281;DHT22;9266;51.132;17.062;2023-06-10T10:25:43;25.20;1.00
18281;DHT22;9266;51.132;17.062;2023-06-10T10:28:13;25.50;99.90
18281;DHT22;9266;51.132;17.062;2023-06-10T10:30:47;25.70;99.90
18281;DHT22;9266;51.132;17.062;2023-06-10T10:33:22;26.00;7.10
18281;DHT22;9266;51.132;17.062;2023-06-10T10:38:58;26.30;1.00
18281;DHT22;9266;51.132;17.062;2023-06-10T10:41:28;26.60;1.00
18281;DHT22;9266;51.132;17.062;2023-06-10T10:44:00;26.40;1.00
18281;DHT22;9266;51.132;17.062;2023-06-10T10:46:31;26.30;1.00
18281;DHT22;9266;51.132;17.062;2023-06-10T10:49:13;26.50;1.00
18281;DHT22;9266;51.132;17.062;2023-06-10T10:51:55;26.40;1.00
18281;DHT22;9266;51.132;17.062;2023-06-10T10:54:31;26.40;1.00
18281;DHT22;9266;51.132;17.062;2023-06-10T10:57:14;26.30;1.00
18281;DHT22;9266;51.132;17.062;2023-06-10T10:59:51;26.50;1.00
18281;DHT22;9266;51.132;17.062;2023-06-10T11:02:33;25.80;99.90
18281;DHT22;9266;51.132;17.062;2023-06-10T11:05:01;26.50;99.90
18281;DHT22;9266;51.132;17.062;2023-06-10T11:07:52;26.50;99.90
18281;DHT22;9266;51.132;17.062;2023-06-10T11:10:30;25.20;99.90
18281;DHT22;9266;51.132;17.062;2023-06-10T11:12:57;26.60;99.90
18281;DHT22;9266;51.132;17.062;2023-06-10T11:15:28;26.70;28.70
18281;DHT22;9266;51.132;17.062;2023-06-10T11:18:13;26.60;43.40
18281;DHT22;9266;51.132;17.062;2023-06-10T11:20:57;26.60;40.80
18281;DHT22;9266;51.132;17.062;2023-06-10T11:26:12;26.90;1.00
18281;DHT22;9266;51.132;17.062;2023-06-10T11:28:40;26.80;1.00
18281;DHT22;9266;51.132;17.062;2023-06-10T11:31:09;26.90;1.00
18281;DHT22;9266;51.132;17.062;2023-06-10T11:33:47;26.80;1.00
18281;DHT22;9266;51.132;17.062;2023-06-10T11:36:17;26.80;1.00
18281;DHT22;9266;51.132;17.062;2023-06-10T11:38:44;26.90;1.00
18281;DHT22;9266;51.132;17.062;2023-06-10T11:41:15;27.00;1.00
18281;DHT22;9266;51.132;17.062;2023-06-10T11:43:43;27.00;1.00
18281;DHT22;9266;51.132;17.062;2023-06-10T11:46:11;26.60;1.00
18281;DHT22;9266;51.132;17.062;2023-06-10T11:48:38;26.40;1.00
18281;DHT22;9266;51.132;17.062;2023-06-10T11:51:08;26.60;1.00
18281;DHT22;9266;51.132;17.062;2023-06-10T11:53:36;26.60;1.00
18281;DHT22;9266;51.132;17.062;2023-06-10T11:56:06;26.80;1.00
18281;DHT22;9266;51.132;17.062;2023-06-10T11:58:43;26.90;1.00
18281;DHT22;9266;51.132;17.062;2023-06-10T12:01:19;27.00;1.00
18281;DHT22;9266;51.132;17.062;2023-06-10T12:03:48;27.10;1.00
18281;DHT22;9266;51.132;17.062;2023-06-10T12:06:19;25.90;1.00
18281;DHT22;9266;51.132;17.062;2023-06-10T12:08:49;27.30;1.00
18281;DHT22;9266;51.132;17.062;2023-06-10T12:11:20;27.60;1.00
18281;DHT22;9266;51.132;17.062;2023-06-10T12:13:52;27.60;1.00
18281;DHT22;9266;51.132;17.062;2023-06-10T12:16:20;27.60;1.00
18281;DHT22;9266;51.132;17.062;2023-06-10T12:18:51;27.60;1.00
18281;DHT22;9266;51.132;17.062;2023-06-10T12:21:19;27.30;1.00
18281;DHT22;9266;51.132;17.062;2023-06-10T12:24:05;27.20;1.00
18281;DHT22;9266;51.132;17.062;2023-06-10T12:26:40;27.30;1.00
18281;DHT22;9266;51.132;17.062;2023-06-10T12:29:22;27.40;1.00
18281;DHT22;9266;51.132;17.062;2023-06-10T12:32:03;27.50;1.00
18281;DHT22;9266;51.132;17.062;2023-06-10T12:34:34;27.40;1.00
18281;DHT22;9266;51.132;17.062;2023-06-10T12:37:04;27.50;1.00
18281;DHT22;9266;51.132;17.062;2023-06-10T12:39:32;27.60;1.00
18281;DHT22;9266;51.132;17.062;2023-06-10T12:42:01;26.10;1.00
18281;DHT22;9266;51.132;17.062;2023-06-10T12:44:32;27.00;1.00
18281;DHT22;9266;51.132;17.062;2023-06-10T12:47:00;26.90;1.00
18281;DHT22;9266;51.132;17.062;2023-06-10T12:49:28;25.90;1.00
18281;DHT22;9266;51.132;17.062;2023-06-10T12:51:55;26.60;1.00
18281;DHT22;9266;51.132;17.062;2023-06-10T12:54:22;26.70;1.00
18281;DHT22;9266;51.132;17.062;2023-06-10T12:56:50;26.90;1.00
18281;DHT22;9266;51.132;17.062;2023-06-10T12:59:18;26.90;1.00
18281;DHT22;9266;51.132;17.062;2023-06-10T13:01:54;27.00;1.00
18281;DHT22;9266;51.132;17.062;2023-06-10T13:04:22;27.10;1.00
18281;DHT22;9266;51.132;17.062;2023-06-10T13:06:49;27.00;1.00
18281;DHT22;9266;51.132;17.062;2023-06-10T13:09:16;27.10;1.00
18281;DHT22;9266;51.132;17.062;2023-06-10T13:11:44;26.90;1.00
18281;DHT22;9266;51.132;17.062;2023-06-10T13:14:12;26.80;99.90
18281;DHT22;9266;51.132;17.062;2023-06-10T13:16:39;26.70;99.90
18281;DHT22;9266;51.132;17.062;2023-06-10T13:19:16;25.90;99.90
18281;DHT22;9266;51.132;17.062;2023-06-10T13:21:43;25.60;99.90
18281;DHT22;9266;51.132;17.062;2023-06-10T13:24:14;26.90;99.90
18281;DHT22;9266;51.132;17.062;2023-06-10T13:26:44;26.70;99.90
18281;DHT22;9266;51.132;17.062;2023-06-10T13:29:11;27.00;99.90
18281;DHT22;9266;51.132;17.062;2023-06-10T13:32:01;27.00;99.90
18281;DHT22;9266;51.132;17.062;2023-06-10T13:34:39;27.00;99.90
18281;DHT22;9266;51.132;17.062;2023-06-10T13:37:12;27.10;99.90
18281;DHT22;9266;51.132;17.062;2023-06-10T13:39:46;26.90;99.90
18281;DHT22;9266;51.132;17.062;2023-06-10T13:42:14;26.80;99.90
18281;DHT22;9266;51.132;17.062;2023-06-10T13:44:50;26.90;99.90
18281;DHT22;9266;51.132;17.062;2023-06-10T13:47:19;27.10;99.90
18281;DHT22;9266;51.132;17.062;2023-06-10T13:49:49;27.10;99.90
18281;DHT22;9266;51.132;17.062;2023-06-10T13:52:16;27.10;99.90
18281;DHT22;9266;51.132;17.062;2023-06-10T13:54:45;27.00;99.90
18281;DHT22;9266;51.132;17.062;2023-06-10T13:57:15;27.10;99.90
18281;DHT22;9266;51.132;17.062;2023-06-10T13:59:42;27.20;99.90
18281;DHT22;9266;51.132;17.062;2023-06-10T14:02:10;27.10;99.90
18281;DHT22;9266;51.132;17.062;2023-06-10T14:04:37;27.30;99.90
18281;DHT22;9266;51.132;17.062;2023-06-10T14:07:09;26.70;99.90
18281;DHT22;9266;51.132;17.062;2023-06-10T14:09:36;27.10;99.90
18281;DHT22;9266;51.132;17.062;2023-06-10T14:12:05;27.30;99.90
18281;DHT22;9266;51.132;17.062;2023-06-10T14:14:37;27.30;99.90
18281;DHT22;9266;51.132;17.062;2023-06-10T14:17:04;27.10;99.90
18281;DHT22;9266;51.132;17.062;2023-06-10T14:19:34;27.20;99.90
18281;DHT22;9266;51.132;17.062;2023-06-10T14:22:07;27.20;99.90
18281;DHT22;9266;51.132;17.062;2023-06-10T14:24:37;26.90;99.90
18281;DHT22;9266;51.132;17.062;2023-06-10T14:27:05;26.90;99.90
18281;DHT22;9266;51.132;17.062;2023-06-10T14:29:36;26.80;99.90
18281;DHT22;9266;51.132;17.062;2023-06-10T14:32:04;26.50;99.90
18281;DHT22;9266;51.132;17.062;2023-06-10T14:34:39;26.80;99.90
18281;DHT22;9266;51.132;17.062;2023-06-10T14:37:13;27.10;99.90
18281;DHT22;9266;51.132;17.062;2023-06-10T14:39:42;27.10;99.90
18281;DHT22;9266;51.132;17.062;2023-06-10T14:42:12;27.10;99.90
18281;DHT22;9266;51.132;17.062;2023-06-10T14:44:40;26.90;99.90
18281;DHT22;9266;51.132;17.062;2023-06-10T14:47:08;26.90;99.90
18281;DHT22;9266;51.132;17.062;2023-06-10T14:49:35;26.80;99.90
18281;DHT22;9266;51.132;17.062;2023-06-10T14:52:03;27.10;99.90
18281;DHT22;9266;51.132;17.062;2023-06-10T14:54:32;26.70;99.90
18281;DHT22;9266;51.132;17.062;2023-06-10T14:57:02;26.80;99.90
18281;DHT22;9266;51.132;17.062;2023-06-10T14:59:31;26.80;99.90
18281;DHT22;9266;51.132;17.062;2023-06-10T15:02:07;26.80;99.90
18281;DHT22;9266;51.132;17.062;2023-06-10T15:04:36;26.60;99.90
18281;DHT22;9266;51.132;17.062;2023-06-10T15:07:05;26.80;99.90
18281;DHT22;9266;51.132;17.062;2023-06-10T15:09:33;27.00;99.90
18281;DHT22;9266;51.132;17.062;2023-06-10T15:12:06;26.90;99.90
18281;DHT22;9266;51.132;17.062;2023-06-10T15:14:36;26.80;99.90
18281;DHT22;9266;51.132;17.062;2023-06-10T15:17:25;26.70;99.90
18281;DHT22;9266;51.132;17.062;2023-06-10T15:19:52;26.30;99.90
18281;DHT22;9266;51.132;17.062;2023-06-10T15:22:19;26.80;99.90
18281;DHT22;9266;51.132;17.062;2023-06-10T15:24:50;26.60;99.90
18281;DHT22;9266;51.132;17.062;2023-06-10T15:27:18;26.70;99.90
18281;DHT22;9266;51.132;17.062;2023-06-10T15:29:45;26.60;99.90
18281;DHT22;9266;51.132;17.062;2023-06-10T15:32:12;26.60;99.90
18281;DHT22;9266;51.132;17.062;2023-06-10T15:34:40;26.50;99.90
18281;DHT22;9266;51.132;17.062;2023-06-10T15:37:07;26.50;99.90
18281;DHT22;9266;51.132;17.062;2023-06-10T15:39:34;26.40;99.90
18281;DHT22;9266;51.132;17.062;2023-06-10T15:42:04;26.50;99.90
18281;DHT22;9266;51.132;17.062;2023-06-10T15:44:32;26.50;99.90
18281;DHT22;9266;51.132;17.062;2023-06-10T15:46:59;26.40;99.90
18281;DHT22;9266;51.132;17.062;2023-06-10T15:49:26;26.80;99.90
18281;DHT22;9266;51.132;17.062;2023-06-10T15:51:56;26.30;99.90
18281;DHT22;9266;51.132;17.062;2023-06-10T15:54:29;26.40;99.90